createdAt,value
2022-07-29T00:00:02.113Z,64.11
2022-07-29T00:05:06.716Z,64.08
2022-07-29T00:10:08.849Z,65.27
2022-07-29T00:15:10.732Z,65.33
2022-07-29T00:20:12.587Z,65.41
2022-07-29T00:25:14.590Z,66.90
2022-07-29T00:30:16.702Z,67.35
2022-07-29T00:35:36.726Z,68.07
2022-07-29T00:40:38.512Z,68.73
2022-07-29T00:45:45.505Z,69.17
2022-07-29T00:50:47.449Z,70.29
2022-07-29T00:55:49.193Z,70.77
2022-07-29T01:00:51.327Z,70.65
2022-07-29T01:05:54.174Z,69.07
2022-07-29T01:10:56.315Z,69.44
2022-07-29T01:16:10.834Z,70.81
2022-07-29T01:21:42.406Z,71.52
2022-07-29T01:26:48.021Z,70.49
2022-07-29T01:31:59.839Z,71.32
2022-07-29T01:37:24.927Z,70.99
2022-07-29T01:42:49.613Z,71.06
2022-07-29T01:48:01.157Z,71.18
2022-07-29T01:53:06.348Z,72.26
2022-07-29T01:58:09.575Z,72.82
2022-07-29T02:03:14.030Z,70.24
2022-07-29T02:08:17.918Z,71.26
2022-07-29T02:13:21.607Z,71.60
2022-07-29T02:18:26.185Z,71.59
2022-07-29T02:23:28.786Z,71.39
2022-07-29T02:28:31.931Z,71.54
2022-07-29T02:33:34.605Z,72.38
2022-07-29T02:38:58.477Z,71.76
2022-07-29T02:44:10.364Z,73.89
2022-07-29T02:49:25.134Z,71.64
2022-07-29T02:54:43.330Z,71.46
2022-07-29T02:59:48.965Z,72.96
2022-07-29T03:04:52.530Z,73.47
2022-07-29T03:09:55.214Z,73.25
2022-07-29T03:14:58.686Z,72.78
2022-07-29T03:20:00.826Z,72.43
2022-07-29T03:25:09.719Z,72.39
2022-07-29T03:30:12.713Z,72.71
2022-07-29T03:35:21.382Z,72.99
2022-07-29T03:40:43.900Z,72.29
2022-07-29T03:45:48.792Z,73.32
2022-07-29T03:50:51.669Z,72.99
2022-07-29T03:56:00.204Z,73.24
2022-07-29T04:01:02.078Z,73.43
2022-07-29T04:06:09.221Z,72.89
2022-07-29T04:11:10.899Z,73.12
2022-07-29T04:16:12.570Z,73.58
2022-07-29T04:21:14.281Z,73.42
2022-07-29T04:26:16.057Z,72.83
2022-07-29T04:31:21.189Z,72.05
2022-07-29T04:36:29.167Z,70.88
2022-07-29T04:41:33.139Z,70.46
2022-07-29T04:46:36.641Z,69.49
2022-07-29T04:51:38.911Z,69.70
2022-07-29T04:56:40.615Z,68.86
2022-07-29T05:01:42.278Z,66.54
2022-07-29T05:06:44.636Z,64.13
2022-07-29T05:11:46.338Z,65.05
2022-07-29T05:16:48.069Z,66.16
2022-07-29T05:21:49.768Z,64.47
2022-07-29T05:26:51.428Z,64.53
2022-07-29T05:31:54.019Z,63.97
2022-07-29T05:36:55.689Z,63.70
2022-07-29T05:41:57.469Z,62.42
2022-07-29T05:46:59.109Z,63.59
2022-07-29T05:52:00.770Z,64.32
2022-07-29T05:57:02.756Z,61.72
2022-07-29T06:02:06.216Z,61.09
2022-07-29T06:07:08.384Z,60.80
2022-07-29T06:12:10.557Z,58.95
2022-07-29T06:17:12.800Z,58.27
2022-07-29T06:22:17.628Z,59.61
2022-07-29T06:27:19.261Z,58.77
2022-07-29T06:32:22.899Z,57.88
2022-07-29T06:37:29.145Z,57.21
2022-07-29T06:42:33.762Z,55.86
2022-07-29T06:47:35.399Z,55.94
2022-07-29T06:52:37.986Z,55.84
2022-07-29T06:57:39.619Z,56.93
2022-07-29T07:02:41.299Z,53.60
2022-07-29T07:07:42.973Z,54.11
2022-07-29T07:12:44.688Z,52.95
2022-07-29T07:17:46.318Z,51.72
2022-07-29T07:22:47.957Z,51.20
2022-07-29T07:27:49.688Z,51.15
2022-07-29T07:32:51.417Z,50.85
2022-07-29T07:37:53.049Z,50.09
2022-07-29T07:42:54.817Z,49.16
2022-07-29T07:47:56.481Z,47.18
2022-07-29T07:52:59.378Z,47.01
2022-07-29T07:58:01.008Z,46.56
2022-07-29T08:03:03.501Z,46.71
2022-07-29T08:08:18.821Z,46.12
2022-07-29T08:13:22.197Z,42.97
2022-07-29T08:18:25.603Z,41.20
2022-07-29T08:23:32.959Z,40.82
2022-07-29T08:28:51.416Z,41.79
2022-07-29T08:33:53.352Z,38.48
2022-07-29T08:38:55.150Z,37.27
2022-07-29T08:43:57.099Z,41.40
2022-07-29T08:48:58.802Z,40.30
2022-07-29T08:54:01.448Z,37.44
2022-07-29T08:59:06.963Z,37.44
2022-07-29T09:04:12.841Z,37.67
2022-07-29T09:09:15.279Z,38.87
2022-07-29T09:14:16.978Z,39.26
2022-07-29T09:19:26.025Z,38.15
2022-07-29T09:24:45.239Z,40.35
2022-07-29T09:29:47.306Z,40.47
2022-07-29T09:34:48.990Z,39.82
2022-07-29T09:39:51.184Z,37.32
2022-07-29T09:44:52.852Z,38.13
2022-07-29T09:49:59.381Z,37.49
2022-07-29T09:55:09.162Z,35.23
2022-07-29T10:00:17.034Z,31.32
2022-07-29T10:05:21.615Z,30.31
2022-07-29T10:10:24.861Z,27.66
2022-07-29T10:15:29.540Z,28.92
2022-07-29T10:20:31.712Z,28.46
2022-07-29T10:25:33.435Z,32.34
2022-07-29T10:30:35.491Z,36.21
2022-07-29T10:35:43.211Z,32.43
2022-07-29T10:41:36.275Z,34.21
2022-07-29T10:46:46.345Z,34.42
2022-07-29T10:52:10.413Z,36.37
2022-07-29T10:57:53.057Z,36.28
2022-07-29T11:02:56.484Z,33.27
2022-07-29T11:08:20.488Z,30.97
2022-07-29T11:14:03.572Z,29.87
2022-07-29T11:19:14.592Z,32.14
2022-07-29T11:24:35.236Z,30.93
2022-07-29T11:29:41.745Z,30.75
2022-07-29T11:34:45.301Z,30.15
2022-07-29T11:39:53.712Z,31.24
2022-07-29T11:44:55.304Z,34.43
2022-07-29T11:49:59.947Z,32.95
2022-07-29T11:55:09.937Z,35.30
2022-07-29T12:00:14.563Z,36.75
2022-07-29T12:05:36.019Z,37.28
2022-07-29T12:10:39.732Z,34.93
2022-07-29T12:15:47.175Z,33.13
2022-07-29T12:20:49.717Z,34.18
2022-07-29T12:25:51.525Z,34.46
2022-07-29T12:30:55.673Z,36.01
2022-07-29T12:36:07.177Z,37.26
2022-07-29T12:41:09.932Z,37.99
2022-07-29T12:46:15.971Z,38.08
2022-07-29T12:51:17.978Z,38.76
2022-07-29T12:56:41.722Z,37.96
2022-07-29T13:01:42.191Z,38.34
2022-07-29T13:06:51.075Z,38.33
2022-07-29T13:11:54.193Z,37.21
2022-07-29T13:17:16.773Z,36.66
2022-07-29T13:22:20.509Z,37.54
2022-07-29T13:27:27.148Z,36.98
2022-07-29T13:32:31.210Z,38.08
2022-07-29T13:37:35.284Z,37.53
2022-07-29T13:42:37.385Z,37.06
2022-07-29T13:47:39.352Z,36.59
2022-07-29T13:52:41.021Z,37.62
2022-07-29T13:57:42.697Z,36.05
2022-07-29T14:02:44.452Z,35.54
2022-07-29T14:07:46.188Z,35.03
2022-07-29T14:12:47.835Z,34.63
2022-07-29T14:17:49.483Z,34.79
2022-07-29T14:22:51.173Z,35.37
2022-07-29T14:27:54.195Z,35.64
2022-07-29T14:32:55.824Z,37.06
2022-07-29T14:37:58.216Z,37.94
2022-07-29T14:42:59.861Z,37.63
2022-07-29T14:48:01.673Z,37.03
2022-07-29T14:53:03.864Z,35.85
2022-07-29T14:58:10.942Z,35.26
2022-07-29T15:03:22.944Z,35.80
2022-07-29T15:08:26.388Z,36.68
2022-07-29T15:13:28.069Z,36.14
2022-07-29T15:18:29.701Z,36.51
2022-07-29T15:23:31.337Z,37.28
2022-07-29T15:28:32.979Z,38.20
2022-07-29T15:33:34.631Z,38.73
2022-07-29T15:38:41.892Z,38.92
2022-07-29T15:43:50.305Z,39.32
2022-07-29T15:48:52.007Z,39.98
2022-07-29T15:53:53.882Z,40.75
2022-07-29T15:58:55.675Z,41.09
2022-07-29T16:03:58.408Z,40.03
2022-07-29T16:09:00.624Z,40.67
2022-07-29T16:14:02.388Z,40.43
2022-07-29T16:19:04.899Z,40.51
2022-07-29T16:24:07.151Z,40.34
2022-07-29T16:29:08.828Z,40.98
2022-07-29T16:34:10.459Z,42.21
2022-07-29T16:39:12.806Z,43.51
2022-07-29T16:44:14.515Z,43.06
2022-07-29T16:49:19.351Z,44.90
2022-07-29T16:54:21.304Z,44.94
2022-07-29T16:59:23.024Z,45.15
2022-07-29T17:04:24.687Z,45.19
2022-07-29T17:09:26.443Z,45.99
2022-07-29T17:14:31.125Z,45.99
2022-07-29T17:19:35.452Z,44.57
2022-07-29T17:24:37.291Z,45.67
2022-07-29T17:29:40.257Z,46.13
2022-07-29T17:34:43.035Z,47.05
2022-07-29T17:39:44.948Z,48.25
2022-07-29T17:44:46.596Z,48.55
2022-07-29T17:49:48.253Z,49.12
2022-07-29T17:54:49.984Z,49.92
2022-07-29T17:59:51.734Z,50.23
2022-07-29T18:04:53.377Z,51.27
2022-07-29T18:10:00.019Z,51.70
2022-07-29T18:15:02.162Z,52.25
2022-07-29T18:20:04.815Z,53.43
2022-07-29T18:25:07.683Z,54.00
2022-07-29T18:30:09.549Z,54.58
2022-07-29T18:35:11.237Z,55.64
2022-07-29T18:40:13.144Z,56.31
2022-07-29T18:45:19.261Z,57.61
2022-07-29T18:50:26.946Z,57.45
2022-07-29T18:55:30.789Z,57.85
2022-07-29T19:00:32.426Z,58.07
2022-07-29T19:05:34.136Z,59.00
2022-07-29T19:10:35.770Z,57.93
2022-07-29T19:15:37.518Z,58.46
2022-07-29T19:20:39.969Z,59.13
2022-07-29T19:25:48.201Z,58.73
2022-07-29T19:30:55.765Z,58.86
2022-07-29T19:35:57.755Z,59.61
2022-07-29T19:40:59.450Z,59.35
2022-07-29T19:46:01.187Z,59.79
2022-07-29T19:51:03.115Z,59.96
2022-07-29T19:56:05.261Z,61.48
2022-07-29T20:01:11.420Z,61.93
2022-07-29T20:06:13.295Z,61.32
2022-07-29T20:11:14.968Z,62.01
2022-07-29T20:16:16.858Z,62.29
2022-07-29T20:21:18.567Z,63.45
2022-07-29T20:26:20.218Z,63.11
2022-07-29T20:31:22.273Z,63.98
2022-07-29T20:36:24.102Z,64.48
2022-07-29T20:41:26.329Z,65.64
2022-07-29T20:46:28.104Z,66.17
2022-07-29T20:51:29.779Z,67.34
2022-07-29T20:56:31.439Z,68.16
2022-07-29T21:01:33.168Z,67.08
2022-07-29T21:06:35.054Z,67.88
2022-07-29T21:11:44.692Z,68.37
2022-07-29T21:16:46.752Z,69.00
2022-07-29T21:21:48.408Z,68.69
2022-07-29T21:27:10.967Z,68.20
2022-07-29T21:32:11.745Z,69.31
2022-07-29T21:37:13.417Z,69.67
2022-07-29T21:42:15.155Z,70.74
2022-07-29T21:47:16.794Z,69.68
2022-07-29T21:52:18.899Z,70.61
2022-07-29T21:57:20.566Z,70.06
2022-07-29T22:02:22.214Z,70.76
2022-07-29T22:07:23.843Z,70.90
2022-07-29T22:12:25.480Z,69.95
2022-07-29T22:17:27.178Z,70.49
2022-07-29T22:22:28.903Z,69.99
2022-07-29T22:27:30.709Z,71.97
2022-07-29T22:32:34.155Z,69.42
2022-07-29T22:37:35.841Z,70.85
2022-07-29T22:42:40.708Z,71.52
2022-07-29T22:47:48.040Z,72.02
2022-07-29T22:52:50.193Z,72.26
2022-07-29T22:57:51.848Z,71.56
2022-07-29T23:02:53.528Z,71.91
2022-07-29T23:07:55.207Z,71.94
2022-07-29T23:12:56.916Z,71.69
2022-07-29T23:17:59.459Z,71.11
2022-07-29T23:23:01.143Z,70.49
2022-07-29T23:28:03.575Z,69.58
2022-07-29T23:33:05.272Z,69.50
2022-07-29T23:38:06.939Z,70.65
2022-07-29T23:43:09.090Z,75.68
2022-07-29T23:48:10.805Z,77.03
2022-07-29T23:53:12.773Z,78.48
2022-07-29T23:58:14.513Z,81.38
